Flight Track Log - Related Links

Times and Time Zones

All times are in EDT time to prevent confusion due to time zone crossing. See the UAL256 flight status page for this flight to view local times or setup timezone preferences in your user account.

Time Position Orientation Groundspeed Altitude Reporting Facility
EDT Latitude Longitude Course Direction KTS MPH feet Rate Location/Type
Tue 09:07:38 PM 39.8833 -104.5667 82° East 186 214 7,300  Level Denver TRACON
Tue 09:08:44 PM 39.9000 -104.4833 75° East 242 278 9,400 1,571 Climbing Denver TRACON
Tue 09:09:00 PM 39.9340 -104.2131 78° East  Level FlightAware Approximate
Tue 09:09:44 PM 39.9167 -104.3833 78° East 282 325 10,600  Level Denver TRACON
Tue 09:10:00 PM 39.9594 -104.0607 78° East  Level FlightAware Approximate
Tue 09:10:15 PM 39.9333 -104.3286 68° East 294 338 11,500  Level Denver Center
Tue 09:11:00 PM 39.9868 -103.9089 79° East  Level FlightAware Approximate
Tue 09:11:16 PM 39.9603 -104.2075 74° East 323 372 12,100  Level Denver Center
Tue 09:12:00 PM 40.0175 -103.7590 82° East  Level FlightAware Approximate
Tue 09:12:17 PM 39.9803 -104.0781 79° East 372 428 13,300  Level Denver Center
Tue 09:13:19 PM 39.9944 -103.9386 82° East 387 445 15,900 2,439 Climbing Denver Center
Tue 09:14:20 PM 40.0175 -103.7822 79° East 406 467 18,300 2,049 Climbing Denver Center
Tue 09:15:22 PM 40.0406 -103.6503 77° East 405 466 20,100 1,707 Climbing Denver Center
Tue 09:16:23 PM 40.0658 -103.4961 78° East 424 488 21,800 1,463 Climbing Denver Center
Tue 09:17:25 PM 40.0922 -103.3358 78° East 443 510 23,100 1,463 Climbing Denver Center
Tue 09:18:26 PM 40.1239 -103.1394 78° East 466 536 24,800 1,561 Climbing Denver Center
Tue 09:19:28 PM 40.1500 -102.9650 79° East 480 552 26,300 1,317 Climbing Denver Center
Tue 09:20:29 PM 40.1794 -102.7878 78° East 493 567 27,500 1,366 Climbing Denver Center
Tue 09:21:31 PM 40.2064 -102.6056 79° East 498 573 29,100 1,500 Climbing Denver Center
Tue 09:22:33 PM 40.2322 -102.4353 79° East 500 575 30,600 1,561 Climbing Denver Center
Tue 09:23:34 PM 40.2631 -102.2394 78° East 493 567 32,300 1,415 Climbing Denver Center
Tue 09:24:36 PM 40.2878 -102.0714 79° East 492 566 33,500 1,122 Climbing Denver Center
Tue 09:25:37 PM 40.3131 -101.9056 79° East 486 559 34,600 732 Climbing Denver Center
Tue 09:26:39 PM 40.3369 -101.7122 81° East 483 556 35,000 194 Climbing Denver Center
Tue 09:27:41 PM 40.3369 -101.5394 90° East 496 571 35,000  Level Denver Center
Tue 09:28:42 PM 40.3364 -101.3408 90° East 489 563 35,000  Level Denver Center
Tue 09:29:44 PM 40.3356 -101.1697 90° East 491 565 35,000  Level Denver Center
Tue 09:30:46 PM 40.3347 -100.9714 90° East 491 565 35,000  Level Denver Center
Tue 09:31:47 PM 40.3336 -100.8028 90° East 489 563 35,000  Level Denver Center
Tue 09:32:49 PM 40.3308 -100.6061 91° East 488 562 35,000  Level Denver Center
Tue 09:33:51 PM 40.3283 -100.4367 91° East 489 563 35,000  Level Denver Center
Tue 09:34:52 PM 40.3258 -100.2369 91° East 493 567 35,000  Level Denver Center
Tue 09:35:54 PM 40.3236 -100.0658 91° East 494 568 35,000 48 Level Denver Center
Tue 09:36:56 PM 40.3200 -99.8794 91° East 493 567 35,100  Climbing Denver Center
Tue 09:37:57 PM 40.3181 -99.7008 91° East 492 566 35,000 -49 Descending Denver Center
Tue 09:38:59 PM 40.3147 -99.5258 91° East 483 556 35,000  Level Denver Center
Tue 09:40:01 PM 40.3106 -99.3511 92° East 483 556 35,000 -48 Level Denver Center
Tue 09:41:03 PM 40.3072 -99.1803 91° East 475 547 34,900  Descending Denver Center
Tue 09:42:04 PM 40.2894 -98.9756 96° East 474 545 35,000 98 Climbing Denver Center
Tue 09:43:06 PM 40.2544 -98.8072 105° East 480 552 35,100  Climbing Denver Center
Tue 09:44:08 PM 40.2194 -98.6433 106° East 472 543 35,000 -49 Descending Denver Center
Tue 09:45:09 PM 40.1850 -98.4781 105° East 472 543 35,000  Level Denver Center
Tue 09:46:20 PM 40.1433 -98.2794 105° East 474 545 35,000  Level Minneapolis Center
Tue 09:47:33 PM 40.1033 -98.0842 105° East 468 539 35,000  Level Minneapolis Center
Tue 09:48:34 PM 40.0975 -97.9144 93° East 471 542 35,000  Level Minneapolis Center
Tue 09:49:36 PM 40.1019 -97.7456 88° East 469 540 35,000  Level Minneapolis Center
Tue 09:50:37 PM 40.1064 -97.5764 88° East 468 539 35,000  Level Minneapolis Center
Tue 09:51:38 PM 40.1117 -97.3733 88° East 468 539 35,000  Level Minneapolis Center
Tue 09:52:39 PM 40.1181 -97.2158 87° East 469 540 35,000  Level Minneapolis Center
Tue 09:53:41 PM 40.1481 -97.0481 77° East 474 545 35,000  Level Minneapolis Center
Tue 09:54:42 PM 40.1758 -96.8844 77° East 468 539 35,000  Level Minneapolis Center
Tue 09:55:43 PM 40.2033 -96.7192 78° East 467 537 35,000  Level Minneapolis Center
Tue 09:56:44 PM 40.2308 -96.5536 78° East 467 537 35,000  Level Minneapolis Center
Tue 09:57:45 PM 40.2575 -96.3897 78° East 465 535 35,000  Level Minneapolis Center
Tue 09:58:46 PM 40.2903 -96.1928 78° East 464 534 35,000  Level Minneapolis Center
Tue 09:59:47 PM 40.3164 -96.0283 78° East 463 533 35,000  Level Minneapolis Center
Tue 10:00:49 PM 40.3433 -95.8628 78° East 466 536 35,000  Level Minneapolis Center
Tue 10:01:50 PM 40.3686 -95.6997 78° East 463 533 35,000  Level Minneapolis Center
Tue 10:02:51 PM 40.3942 -95.5361 78° East 461 531 35,000  Level Minneapolis Center
Tue 10:03:52 PM 40.4194 -95.3742 78° East 458 527 35,000  Level Minneapolis Center
Tue 10:04:53 PM 40.4453 -95.2119 78° East 457 526 35,000  Level Minneapolis Center
Tue 10:05:54 PM 40.4692 -95.0497 79° East 455 524 35,000  Level Minneapolis Center
Tue 10:06:55 PM 40.4950 -94.8875 78° East 455 524 35,000  Level Minneapolis Center
Tue 10:07:56 PM 40.5194 -94.7250 79° East 455 524 35,000  Level Minneapolis Center
Tue 10:08:57 PM 40.5436 -94.5478 80° East 453 521 35,000  Level Minneapolis Center
Tue 10:09:58 PM 40.5694 -94.3872 78° East 453 521 35,000  Level Minneapolis Center
Tue 10:12:00 PM 40.6067 -94.1866 79° East  Level FlightAware Approximate
Tue 10:12:43 PM 40.6322 -93.9342 79° East 451 519 35,000  Level Chicago Center
Tue 10:13:01 PM 40.6364 -93.9044 80° East 449 517 35,000  Level Minneapolis Center
Tue 10:14:02 PM 40.6592 -93.7431 79° East 450 518 35,000  Level Minneapolis Center
Tue 10:15:03 PM 40.6869 -93.5475 79° East 453 521 35,000  Level Minneapolis Center
Tue 10:16:04 PM 40.7094 -93.3839 80° East 456 525 35,000  Level Minneapolis Center
Tue 10:18:05 PM 40.7531 -93.0533 80° East 459 528 35,000  Level Minneapolis Center
Tue 10:19:06 PM 40.7756 -92.8881 80° East 459 528 35,000  Level Minneapolis Center
Tue 10:19:51 PM 40.7922 -92.7550 81° East 460 529 35,000  Level Chicago Center
Tue 10:20:52 PM 40.8139 -92.5900 80° East 458 527 35,000  Level Chicago Center
Tue 10:21:53 PM 40.8356 -92.4244 80° East 458 527 35,000  Level Chicago Center
Tue 10:22:54 PM 40.8567 -92.2567 81° East 463 533 35,000  Level Chicago Center
Tue 10:23:55 PM 40.8775 -92.0914 80° East 461 531 35,000  Level Chicago Center
Tue 10:24:56 PM 40.8983 -91.9231 81° East 465 535 35,000 -146 Level Chicago Center
Tue 10:25:58 PM 40.9192 -91.7581 80° East 460 529 34,700 -585 Descending Chicago Center
Tue 10:26:59 PM 40.9383 -91.5931 81° East 458 527 33,800 -836 Descending Chicago Center
Tue 10:28:00 PM 40.9583 -91.4281 81° East 457 526 33,000 -393 Descending Chicago Center
Tue 10:29:01 PM 40.9786 -91.2519 81° East 455 524 33,000  Level Chicago Center
Tue 10:30:02 PM 40.9983 -91.0875 81° East 453 521 33,000  Level Chicago Center
Tue 10:31:03 PM 41.0158 -90.9233 82° East 451 519 33,000  Level Chicago Center
Tue 10:32:04 PM 41.0347 -90.7594 81° East 450 518 33,000  Level Chicago Center
Tue 10:33:05 PM 41.0539 -90.5950 81° East 451 519 33,000 -344 Level Chicago Center
Tue 10:34:06 PM 41.0719 -90.4303 82° East 449 517 32,300 -1,475 Descending Chicago Center
Tue 10:35:07 PM 41.0919 -90.2364 82° East 442 509 30,000 -1,967 Descending Chicago Center
Tue 10:36:08 PM 41.1089 -90.0814 82° East 427 491 28,300 -1,721 Descending Chicago Center
Tue 10:37:09 PM 41.1253 -89.9294 82° East 417 480 26,500 -1,770 Descending Chicago Center
Tue 10:38:10 PM 41.1411 -89.7825 82° East 404 465 24,700 -1,230 Descending Chicago Center
Tue 10:39:11 PM 41.1550 -89.6397 83° East 392 451 24,000 -1,426 Descending Chicago Center
Tue 10:40:12 PM 41.1964 -89.4994 69° East 411 473 21,800 -2,371 Descending Chicago Center
Tue 10:41:15 PM 41.2519 -89.3631 62° Northeast 418 481 19,100 -2,508 Descending Chicago Center
Tue 10:42:14 PM 41.3058 -89.2286 62° Northeast 415 478 16,700 -1,950 Descending Chicago Center
Tue 10:43:15 PM 41.3553 -89.1017 63° Northeast 397 457 15,200 -1,426 Descending Chicago Center
Tue 10:44:16 PM 41.4067 -88.9744 62° Northeast 392 451 13,800 -1,426 Descending Chicago Center
Tue 10:45:17 PM 41.4556 -88.8475 63° Northeast 387 445 12,300 -1,328 Descending Chicago Center
Tue 10:46:18 PM 41.5056 -88.7261 61° Northeast 376 433 11,100 -639 Descending Chicago Center
Tue 10:47:19 PM 41.5531 -88.6028 63° Northeast 373 429 11,000 -49 Descending Chicago Center
Tue 10:48:20 PM 41.6139 -88.4578 61° Northeast 372 428 11,000  Level Chicago Center
Tue 10:49:21 PM 41.6786 -88.3478 52° Northeast 378 435 11,000  Level Chicago Center
Tue 10:50:22 PM 41.7422 -88.2372 52° Northeast 374 430 11,000 -98 Level Chicago Center
Tue 10:51:23 PM 41.8064 -88.1278 52° Northeast 370 426 10,800 -984 Descending Chicago Center
Tue 10:53:25 PM 41.9656 -88.1039 North 302 348 8,000 -1,311 Descending Chicago Center
Tue 10:54:26 PM 42.0283 -88.1481 332° Northwest 257 296 6,800 -1,240 Descending Chicago Center
Tue 10:55:26 PM 42.0814 -88.1486 360° North 234 269 5,500 -1,171 Descending Chicago Center
Tue 10:56:29 PM 42.0833 -88.0667 88° East 205 236 4,400 -1,317 Descending Chicago TRACON
Tue 10:57:29 PM 42.0667 -88.0167 114° Southeast 163 188 2,800 -1,600 Descending Chicago TRACON

Login

Don't have an account? Register now (free) for customized features, flight alerts, and more!